Time;durP1;ratioP1;P1;durP2;ratioP2;P2;SDS_P1;SDS_P2;PMS_P1;PMS_P2;Temp;Humidity;BMP_temperature;BMP_pressure;BME280_temperature;BME280_humidity;BME280_pressure;Samples;Min_cycle;Max_cycle;Signal;HPM_P1;HPM_P2
2023/02/25 00:02:03;;;;;;;12.10;7.40;;;;;;;;;;105255;1250;61599;-67
2023/02/25 00:04:31;;;;;;;8.90;7.00;;;;;;;;;;105315;1269;61969;-67
2023/02/25 00:07:18;;;;;;;11.50;7.20;;;;;;;;;;105180;1249;62226;-67
2023/02/25 00:09:45;;;;;;;;;;;;;;;;;;105300;1251;61673;-67
2023/02/25 00:12:12;;;;;;;12.20;8.10;;;;;;;;;;105310;1252;61567;-66
2023/02/25 00:14:39;;;;;;;11.50;7.40;;;;;;;;;;105321;1250;61685;-66
2023/02/25 00:17:10;;;;;;;11.70;8.00;;;;;;;;;;105360;1252;61569;-66
2023/02/25 00:19:38;;;;;;;16.10;7.50;;;;;;;;;;105217;1252;61698;-66
2023/02/25 00:22:05;;;;;;;11.10;8.10;;;;;;;;;;105202;1266;61067;-66
2023/02/25 00:24:34;;;;;;;14.30;8.00;;;;;;;;;;105248;1253;61560;-66
2023/02/25 00:27:00;;;;;;;17.10;8.80;;;;;;;;;;105130;1248;61619;-65
2023/02/25 00:29:27;;;;;;;9.80;7.30;;;;;;;;;;105293;1256;61697;-65
2023/02/25 00:31:54;;;;;;;8.90;8.10;;;;;;;;;;105319;1252;61701;-65
2023/02/25 00:34:21;;;;;;;11.50;8.40;;;;;;;;;;105205;1250;61711;-65
2023/02/25 00:36:49;;;;;;;10.30;8.00;;;;;;;;;;105312;1252;61554;-66
2023/02/25 00:39:15;;;;;;;9.20;7.50;;;;;;;;;;104829;1268;61574;-65
2023/02/25 00:41:42;;;;;;;11.50;8.60;;;;;;;;;;105051;1249;61740;-65
2023/02/25 00:44:09;;;;;;;14.00;8.70;;;;;;;;;;105223;1247;61696;-66
2023/02/25 00:46:37;;;;;;;11.80;8.30;;;;;;;;;;105246;1252;61737;-66
2023/02/25 00:49:04;;;;;;;11.40;8.30;;;;;;;;;;105326;1256;61600;-67
2023/02/25 00:51:34;;;;;;;12.70;8.30;;;;;;;;;;105290;1248;61669;-66
2023/02/25 00:54:01;;;;;;;11.40;8.80;;;;;;;;;;105127;1253;61749;-66
2023/02/25 00:56:28;;;;;;;10.60;8.30;;;;;;;;;;105308;1260;61575;-65
2023/02/25 00:58:55;;;;;;;11.00;9.30;;;;;;;;;;105256;1248;61742;-65
2023/02/25 01:01:23;;;;;;;12.50;8.70;;;;;;;;;;105310;1252;61789;-66
2023/02/25 01:03:50;;;;;;;14.50;9.70;;;;;;;;;;105177;1260;61073;-65
2023/02/25 01:06:17;;;;;;;11.70;9.50;;;;;;;;;;105281;1252;61695;-64
2023/02/25 01:08:45;;;;;;;15.20;8.90;;;;;;;;;;104909;1262;60710;-65
2023/02/25 01:11:19;;;;;;;14.60;10.00;;;;;;;;;;105336;1252;61667;-65
2023/02/25 01:13:47;;;;;;;15.00;10.60;;;;;;;;;;104843;1253;61740;-67
2023/02/25 01:16:14;;;;;;;12.10;8.90;;;;;;;;;;105144;1253;61636;-65
2023/02/25 01:18:41;;;;;;;11.40;9.30;;;;;;;;;;105324;1252;61680;-65
2023/02/25 01:21:16;;;;;;;14.40;9.60;;;;;;;;;;105282;1252;61600;-65
2023/02/25 01:23:44;;;;;;;10.60;9.60;;;;;;;;;;104778;1270;62625;-65
2023/02/25 01:26:11;;;;;;;15.70;9.60;;;;;;;;;;105380;1252;61677;-67
2023/02/25 01:28:38;;;;;;;11.80;9.00;;;;;;;;;;104941;1255;61630;-65
2023/02/25 01:31:15;;;;;;;13.60;9.60;;;;;;;;;;105155;1248;61627;-65
2023/02/25 01:33:44;;;;;;;13.50;8.70;;;;;;;;;;104914;1254;61712;-65
2023/02/25 01:36:11;;;;;;;15.20;9.00;;;;;;;;;;105505;1258;61704;-64
2023/02/25 01:38:38;;;;;;;13.50;8.70;;;;;;;;;;105200;1260;61674;-65
2023/02/25 01:41:05;;;;;;;17.60;9.30;;;;;;;;;;105210;1258;61692;-65
2023/02/25 01:43:31;;;;;;;11.00;9.60;;;;;;;;;;105317;1252;61547;-64
2023/02/25 01:46:00;;;;;;;12.80;10.00;;;;;;;;;;104907;1254;61645;-64
2023/02/25 01:48:29;;;;;;;17.70;10.60;;;;;;;;;;105294;1265;60710;-65
2023/02/25 01:50:58;;;;;;;13.80;10.00;;;;;;;;;;104903;1248;61707;-64
2023/02/25 01:53:32;;;;;;;14.80;10.50;;;;;;;;;;104967;1255;61633;-65
2023/02/25 01:55:59;;;;;;;16.60;10.10;;;;;;;;;;105362;1260;61570;-66
2023/02/25 01:58:26;;;;;;;14.10;10.70;;;;;;;;;;104879;1254;61683;-65
2023/02/25 02:00:55;;;;;;;14.50;10.40;;;;;;;;;;105197;1253;61665;-65
2023/02/25 02:03:25;;;;;;;14.50;10.60;;;;;;;;;;105143;1253;61704;-66
2023/02/25 02:06:00;;;;;;;13.40;10.40;;;;;;;;;;105245;1252;61576;-66
2023/02/25 02:08:27;;;;;;;14.20;10.10;;;;;;;;;;104833;1258;61701;-66
2023/02/25 02:10:55;;;;;;;13.00;10.00;;;;;;;;;;104892;1254;61323;-65
2023/02/25 02:13:23;;;;;;;13.80;10.30;;;;;;;;;;105324;1253;61694;-65
2023/02/25 02:15:59;;;;;;;12.80;10.60;;;;;;;;;;104851;1263;63399;-65
2023/02/25 02:18:27;;;;;;;14.80;10.40;;;;;;;;;;104806;1271;61691;-65
2023/02/25 02:21:06;;;;;;;17.00;11.00;;;;;;;;;;105256;1252;61603;-65
2023/02/25 02:23:35;;;;;;;12.70;10.50;;;;;;;;;;105180;1253;61777;-65
2023/02/25 02:26:05;;;;;;;13.80;10.40;;;;;;;;;;104904;1251;61769;-65
2023/02/25 02:28:32;;;;;;;15.50;11.00;;;;;;;;;;105193;1253;61679;-65
2023/02/25 02:31:11;;;;;;;13.70;11.10;;;;;;;;;;105391;1248;62319;-65
2023/02/25 02:33:47;;;;;;;15.90;11.50;;;;;;;;;;105227;1261;61604;-64
2023/02/25 02:36:33;;;;;;;12.60;10.70;;;;;;;;;;105158;1258;61699;-65
2023/02/25 02:39:09;;;;;;;15.10;10.80;;;;;;;;;;104806;1256;61649;-65
2023/02/25 02:41:40;;;;;;;11.90;10.60;;;;;;;;;;105098;1254;61593;-66
2023/02/25 02:44:11;;;;;;;13.70;10.50;;;;;;;;;;105048;1261;61133;-64
2023/02/25 02:46:46;;;;;;;14.30;11.30;;;;;;;;;;105374;1254;61605;-65
2023/02/25 02:49:30;;;;;;;12.80;11.40;;;;;;;;;;105268;1263;61695;-65
2023/02/25 02:51:58;;;;;;;13.30;10.70;;;;;;;;;;105211;1270;61683;-65
2023/02/25 02:54:26;;;;;;;15.60;11.30;;;;;;;;;;105020;1255;62304;-65
2023/02/25 02:56:53;;;;;;;17.20;12.00;;;;;;;;;;105269;1270;61027;-64
2023/02/25 02:59:23;;;;;;;18.70;11.90;;;;;;;;;;104672;1258;61715;-62
2023/02/25 03:02:03;;;;;;;14.40;11.70;;;;;;;;;;105392;1253;63057;-62
2023/02/25 03:04:31;;;;;;;16.30;11.50;;;;;;;;;;105350;1265;61726;-62
2023/02/25 03:07:00;;;;;;;18.50;12.50;;;;;;;;;;105298;1253;62030;-62
2023/02/25 03:09:32;;;;;;;14.90;11.60;;;;;;;;;;104776;1254;61709;-62
2023/02/25 03:12:01;;;;;;;16.60;11.60;;;;;;;;;;105221;1254;61788;-62
2023/02/25 03:14:29;;;;;;;16.40;11.20;;;;;;;;;;105149;1256;61707;-62
2023/02/25 03:16:58;;;;;;;13.30;11.90;;;;;;;;;;104850;1248;61741;-62
2023/02/25 03:19:34;;;;;;;14.20;10.90;;;;;;;;;;104921;1256;61790;-61
2023/02/25 03:22:03;;;;;;;14.70;11.30;;;;;;;;;;105225;1270;61566;-62
2023/02/25 03:24:32;;;;;;;13.90;10.70;;;;;;;;;;104861;1259;61692;-62
2023/02/25 03:27:00;;;;;;;16.80;10.70;;;;;;;;;;105372;1264;61673;-61
2023/02/25 03:30:50;;;;;;;18.60;11.80;;;;;;;;;;102051;1292;600001;-62
2023/02/25 03:33:18;;;;;;;12.40;10.80;;;;;;;;;;104209;1260;60275;-62
2023/02/25 03:35:48;;;;;;;16.40;11.40;;;;;;;;;;104528;1260;60242;-63
2023/02/25 03:38:18;;;;;;;17.10;11.20;;;;;;;;;;104221;1278;60201;-61
2023/02/25 03:40:47;;;;;;;14.30;11.20;;;;;;;;;;104320;1267;60183;-62
2023/02/25 03:43:26;;;;;;;14.30;10.90;;;;;;;;;;104027;1267;199569;-62
2023/02/25 03:45:55;;;;;;;13.70;11.70;;;;;;;;;;104103;1260;60271;-61
2023/02/25 03:48:24;;;;;;;13.50;11.40;;;;;;;;;;104379;1259;60262;-61
2023/02/25 03:50:58;;;;;;;14.40;11.40;;;;;;;;;;104092;1264;60275;-62
2023/02/25 03:53:46;;;;;;;15.40;12.00;;;;;;;;;;104136;1263;60176;-62
2023/02/25 03:56:19;;;;;;;16.20;11.80;;;;;;;;;;104310;1263;60909;-62
2023/02/25 03:58:47;;;;;;;15.60;12.00;;;;;;;;;;104262;1273;60768;-63
2023/02/25 04:01:23;;;;;;;17.80;12.30;;;;;;;;;;104314;1260;60821;-62
2023/02/25 04:03:51;;;;;;;17.20;12.70;;;;;;;;;;104036;1272;60311;-62
2023/02/25 04:06:24;;;;;;;16.50;12.20;;;;;;;;;;107547;1259;59986;-63
2023/02/25 04:08:53;;;;;;;15.40;12.40;;;;;;;;;;107897;1257;59810;-64
2023/02/25 04:11:22;;;;;;;17.80;13.40;;;;;;;;;;105054;1258;60764;-63
2023/02/25 04:13:51;;;;;;;16.50;13.20;;;;;;;;;;104347;1260;60876;-63
2023/02/25 04:16:20;;;;;;;15.80;12.30;;;;;;;;;;107367;1257;59936;-62
2023/02/25 04:18:54;;;;;;;13.50;11.70;;;;;;;;;;107871;1258;59112;-63
2023/02/25 04:21:29;;;;;;;17.50;13.30;;;;;;;;;;104476;1259;60912;-61
2023/02/25 04:23:58;;;;;;;18.50;13.20;;;;;;;;;;104365;1268;60872;-62
2023/02/25 04:26:26;;;;;;;20.20;14.00;;;;;;;;;;104227;1262;60737;-64
2023/02/25 04:28:57;;;;;;;22.30;15.00;;;;;;;;;;104341;1270;60898;-64
2023/02/25 04:31:26;;;;;;;21.70;14.80;;;;;;;;;;104347;1266;60889;-64
2023/02/25 04:33:56;;;;;;;19.20;14.50;;;;;;;;;;105326;1261;60749;-64
2023/02/25 04:36:32;;;;;;;17.30;13.60;;;;;;;;;;105342;1247;60868;-64
2023/02/25 04:39:03;;;;;;;21.90;14.70;;;;;;;;;;105203;1247;61187;-64
2023/02/25 04:41:32;;;;;;;18.40;14.00;;;;;;;;;;105409;1246;61240;-65
2023/02/25 04:44:02;;;;;;;18.90;15.00;;;;;;;;;;105336;1250;60904;-65
2023/02/25 04:46:34;;;;;;;20.10;14.70;;;;;;;;;;105271;1247;60889;-64
2023/02/25 04:49:02;;;;;;;19.90;14.20;;;;;;;;;;105408;1248;60865;-64
2023/02/25 04:51:34;;;;;;;21.30;15.30;;;;;;;;;;105428;1267;60609;-64
2023/02/25 04:54:02;;;;;;;21.20;16.00;;;;;;;;;;105292;1247;61219;-64
2023/02/25 04:56:30;;;;;;;21.80;15.20;;;;;;;;;;105405;1250;60857;-64
2023/02/25 04:58:59;;;;;;;17.60;14.50;;;;;;;;;;105514;1251;60943;-64
2023/02/25 05:01:27;;;;;;;20.90;14.70;;;;;;;;;;105415;1262;60882;-64
2023/02/25 05:03:56;;;;;;;21.00;15.10;;;;;;;;;;105267;1248;60882;-64
2023/02/25 05:06:24;;;;;;;20.80;15.00;;;;;;;;;;108049;1247;60677;-64
2023/02/25 05:08:53;;;;;;;19.40;14.70;;;;;;;;;;108254;1246;60828;-64
2023/02/25 05:11:21;;;;;;;20.30;15.60;;;;;;;;;;105689;1247;61272;-64
2023/02/25 05:13:51;;;;;;;20.00;15.70;;;;;;;;;;105311;1247;60853;-64
2023/02/25 05:16:19;;;;;;;22.40;15.30;;;;;;;;;;105364;1251;60895;-63
2023/02/25 05:18:47;;;;;;;20.70;15.50;;;;;;;;;;105927;1250;60780;-64
2023/02/25 05:21:16;;;;;;;19.90;14.70;;;;;;;;;;105389;1256;60856;-63
2023/02/25 05:23:45;;;;;;;21.00;15.60;;;;;;;;;;105429;1253;60879;-65
2023/02/25 05:26:14;;;;;;;21.50;16.70;;;;;;;;;;105283;1248;60889;-63
2023/02/25 05:28:43;;;;;;;22.10;16.80;;;;;;;;;;105493;1257;60747;-66
2023/02/25 05:31:12;;;;;;;23.90;17.20;;;;;;;;;;105371;1247;60862;-65
2023/02/25 05:33:40;;;;;;;23.30;16.90;;;;;;;;;;105306;1251;60792;-64
2023/02/25 05:36:09;;;;;;;22.20;16.40;;;;;;;;;;105677;1251;60910;-64
2023/02/25 05:38:38;;;;;;;24.30;16.30;;;;;;;;;;105283;1254;60856;-61
2023/02/25 05:41:06;;;;;;;20.40;15.60;;;;;;;;;;105448;1250;60991;-61
2023/02/25 05:43:34;;;;;;;20.70;15.90;;;;;;;;;;105457;1247;60875;-67
2023/02/25 05:46:03;;;;;;;21.10;15.90;;;;;;;;;;105331;1250;60991;-60
2023/02/25 05:48:31;;;;;;;21.70;16.20;;;;;;;;;;105368;1253;60777;-60
2023/02/25 05:51:03;;;;;;;22.50;16.20;;;;;;;;;;105428;1247;60828;-61
2023/02/25 05:53:31;;;;;;;22.70;17.00;;;;;;;;;;105372;1251;60765;-63
2023/02/25 05:56:04;;;;;;;21.70;16.90;;;;;;;;;;105505;1256;60337;-63
2023/02/25 05:58:33;;;;;;;21.40;16.30;;;;;;;;;;105474;1252;60864;-64
2023/02/25 06:01:12;;;;;;;21.70;16.80;;;;;;;;;;105514;1256;60920;-64
2023/02/25 06:03:41;;;;;;;26.70;18.20;;;;;;;;;;105519;1251;60785;-66
2023/02/25 06:06:11;;;;;;;23.50;17.40;;;;;;;;;;105847;1251;60610;-65
2023/02/25 06:08:41;;;;;;;24.70;18.00;;;;;;;;;;105622;1247;62213;-64
2023/02/25 06:11:13;;;;;;;24.50;17.10;;;;;;;;;;105444;1247;60783;-66
2023/02/25 06:13:42;;;;;;;27.60;18.40;;;;;;;;;;105314;1250;60927;-67
2023/02/25 06:16:10;;;;;;;24.60;17.80;;;;;;;;;;105538;1247;60750;-66
2023/02/25 06:18:39;;;;;;;24.90;19.40;;;;;;;;;;105473;1247;60777;-68
2023/02/25 06:21:09;;;;;;;24.60;17.80;;;;;;;;;;105347;1247;60882;-69
2023/02/25 06:23:39;;;;;;;24.50;18.80;;;;;;;;;;105163;1253;60915;-67
2023/02/25 06:26:09;;;;;;;25.20;18.70;;;;;;;;;;105084;1256;60806;-64
2023/02/25 06:28:37;;;;;;;22.40;17.70;;;;;;;;;;105405;1263;60969;-67
2023/02/25 06:31:06;;;;;;;23.60;17.70;;;;;;;;;;105053;1254;60886;-67
2023/02/25 06:33:35;;;;;;;23.90;17.70;;;;;;;;;;104822;1247;60802;-70
2023/02/25 06:36:04;;;;;;;25.20;17.40;;;;;;;;;;105354;1250;60788;-67
2023/02/25 06:38:34;;;;;;;23.40;16.60;;;;;;;;;;105891;1249;60760;-67
2023/02/25 06:41:07;;;;;;;26.60;19.20;;;;;;;;;;105267;1247;60853;-67
2023/02/25 06:43:35;;;;;;;24.90;18.90;;;;;;;;;;105504;1251;60871;-63
2023/02/25 06:46:05;;;;;;;23.00;17.90;;;;;;;;;;105556;1249;60754;-64
2023/02/25 06:48:37;;;;;;;24.20;18.70;;;;;;;;;;105605;1247;60879;-61
2023/02/25 06:51:10;;;;;;;29.40;20.10;;;;;;;;;;104808;1254;60885;-65
2023/02/25 06:53:39;;;;;;;28.20;17.70;;;;;;;;;;105401;1247;60790;-65
2023/02/25 06:56:08;;;;;;;22.70;18.10;;;;;;;;;;105202;1252;60826;-66
2023/02/25 06:58:37;;;;;;;25.00;18.80;;;;;;;;;;105349;1251;60730;-66
2023/02/25 07:01:09;;;;;;;26.20;19.00;;;;;;;;;;104924;1254;61433;-70
2023/02/25 07:03:39;;;;;;;28.10;18.60;;;;;;;;;;105211;1266;60741;-71
2023/02/25 07:06:08;;;;;;;23.20;17.80;;;;;;;;;;105003;1249;60854;-69
2023/02/25 07:08:36;;;;;;;25.90;19.10;;;;;;;;;;109100;1246;59100;-68
2023/02/25 07:11:10;;;;;;;27.50;19.00;;;;;;;;;;109051;1247;60026;-66
2023/02/25 07:13:42;;;;;;;24.50;18.70;;;;;;;;;;105385;1250;60902;-70
2023/02/25 07:16:11;;;;;;;26.40;19.80;;;;;;;;;;104953;1247;60867;-66
2023/02/25 07:18:40;;;;;;;27.00;19.20;;;;;;;;;;105322;1250;60840;-66
2023/02/25 07:21:11;;;;;;;25.50;19.40;;;;;;;;;;105670;1251;60960;-66
2023/02/25 07:23:40;;;;;;;23.30;17.90;;;;;;;;;;104768;1255;60867;-66
2023/02/25 07:26:09;;;;;;;25.00;17.70;;;;;;;;;;105640;1253;61374;-69
2023/02/25 07:28:38;;;;;;;29.10;19.40;;;;;;;;;;105178;1252;61092;-69
2023/02/25 07:31:13;;;;;;;27.60;19.40;;;;;;;;;;105241;1252;61009;-66
2023/02/25 07:33:43;;;;;;;28.00;19.90;;;;;;;;;;105524;1251;60968;-68
2023/02/25 07:36:12;;;;;;;25.90;19.20;;;;;;;;;;105319;1249;60849;-67
2023/02/25 07:38:41;;;;;;;26.60;18.50;;;;;;;;;;105197;1250;60902;-69
2023/02/25 07:41:11;;;;;;;27.20;20.00;;;;;;;;;;104805;1254;61709;-69
2023/02/25 07:43:41;;;;;;;25.20;19.70;;;;;;;;;;104829;1265;61756;-71
2023/02/25 07:46:12;;;;;;;27.20;17.40;;;;;;;;;;105083;1255;61596;-67
2023/02/25 07:48:45;;;;;;;24.00;18.40;;;;;;;;;;105404;1247;61669;-64
2023/02/25 07:51:15;;;;;;;30.30;20.30;;;;;;;;;;105449;1250;61689;-66
2023/02/25 07:53:45;;;;;;;26.30;19.00;;;;;;;;;;105271;1254;61722;-68
2023/02/25 07:56:19;;;;;;;26.50;18.40;;;;;;;;;;104683;1255;61696;-67
2023/02/25 07:58:48;;;;;;;24.70;18.20;;;;;;;;;;105354;1248;61599;-72
2023/02/25 08:01:17;;;;;;;21.50;18.70;;;;;;;;;;105282;1250;61689;-69
2023/02/25 08:03:48;;;;;;;24.70;18.90;;;;;;;;;;105435;1247;61682;-67
2023/02/25 08:06:17;;;;;;;24.90;19.70;;;;;;;;;;105278;1251;61615;-69
2023/02/25 08:08:45;;;;;;;26.00;20.40;;;;;;;;;;105473;1254;61294;-66
2023/02/25 08:11:13;;;;;;;23.20;19.20;;;;;;;;;;105659;1256;61571;-64
2023/02/25 08:13:42;;;;;;;25.80;19.70;;;;;;;;;;105389;1251;61605;-66
2023/02/25 08:16:12;;;;;;;29.10;20.30;;;;;;;;;;105311;1251;61711;-66
2023/02/25 08:18:43;;;;;;;27.60;20.70;;;;;;;;;;104703;1248;61708;-65
2023/02/25 08:21:12;;;;;;;25.70;19.80;;;;;;;;;;105281;1252;61704;-65
2023/02/25 08:23:41;;;;;;;26.50;19.80;;;;;;;;;;105127;1248;61691;-65
2023/02/25 08:26:10;;;;;;;25.30;20.70;;;;;;;;;;104865;1251;62162;-67
2023/02/25 08:28:38;;;;;;;30.10;21.20;;;;;;;;;;105284;1264;61746;-66
2023/02/25 08:31:10;;;;;;;30.00;19.90;;;;;;;;;;105166;1257;61807;-71
2023/02/25 08:33:39;;;;;;;28.50;21.40;;;;;;;;;;105473;1248;61665;-66
2023/02/25 08:36:26;;;;;;;25.20;19.40;;;;;;;;;;105130;1263;61574;-65
2023/02/25 08:38:56;;;;;;;29.50;20.90;;;;;;;;;;105403;1250;61664;-69
2023/02/25 08:41:28;;;;;;;26.20;18.60;;;;;;;;;;104894;1250;61755;-67
2023/02/25 08:43:56;;;;;;;26.60;19.30;;;;;;;;;;105103;1265;61567;-66
2023/02/25 08:46:25;;;;;;;23.50;19.00;;;;;;;;;;104990;1250;61664;-67
2023/02/25 08:48:54;;;;;;;27.90;20.00;;;;;;;;;;105032;1255;60660;-67
2023/02/25 08:51:24;;;;;;;26.50;20.10;;;;;;;;;;105206;1252;61605;-67
2023/02/25 08:53:54;;;;;;;23.30;19.10;;;;;;;;;;105292;1248;61695;-67
2023/02/25 08:56:23;;;;;;;25.20;20.40;;;;;;;;;;104835;1250;61643;-65
2023/02/25 08:58:51;;;;;;;23.00;18.40;;;;;;;;;;105236;1252;61674;-63
2023/02/25 09:01:20;;;;;;;25.40;20.10;;;;;;;;;;105165;1253;61462;-67
2023/02/25 09:03:53;;;;;;;24.50;20.20;;;;;;;;;;105130;1268;61692;-68
2023/02/25 09:06:23;;;;;;;26.70;19.50;;;;;;;;;;105353;1252;61577;-67
2023/02/25 09:08:56;;;;;;;24.70;18.60;;;;;;;;;;105112;1264;61682;-67
2023/02/25 09:11:25;;;;;;;24.30;19.30;;;;;;;;;;105198;1251;61577;-68
2023/02/25 09:13:54;;;;;;;19.90;17.20;;;;;;;;;;105056;1254;61686;-71
2023/02/25 09:16:22;;;;;;;22.00;17.00;;;;;;;;;;104941;1248;61628;-67
2023/02/25 09:18:51;;;;;;;22.60;17.30;;;;;;;;;;105149;1250;61701;-70
2023/02/25 09:21:23;;;;;;;20.60;16.80;;;;;;;;;;104757;1249;61766;-67
2023/02/25 09:23:52;;;;;;;19.80;15.70;;;;;;;;;;105085;1252;61708;-70
2023/02/25 09:26:20;;;;;;;19.20;15.90;;;;;;;;;;105185;1251;61696;-68
2023/02/25 09:28:50;;;;;;;17.00;14.50;;;;;;;;;;105189;1266;61005;-72
2023/02/25 09:31:18;;;;;;;16.30;13.90;;;;;;;;;;105156;1253;61924;-68
2023/02/25 09:33:48;;;;;;;16.90;13.70;;;;;;;;;;105169;1250;61686;-70
2023/02/25 09:36:17;;;;;;;20.80;14.00;;;;;;;;;;104806;1253;61592;-68
2023/02/25 09:38:47;;;;;;;16.60;13.20;;;;;;;;;;104740;1254;61574;-66
2023/02/25 09:41:15;;;;;;;13.90;11.70;;;;;;;;;;105174;1250;61017;-69
2023/02/25 09:43:52;;;;;;;13.40;12.00;;;;;;;;;;105042;1254;61746;-66
2023/02/25 09:46:22;;;;;;;13.80;11.80;;;;;;;;;;105149;1249;61729;-63
2023/02/25 09:48:54;;;;;;;13.10;11.60;;;;;;;;;;105211;1248;61683;-63
2023/02/25 09:51:25;;;;;;;15.20;11.30;;;;;;;;;;104857;1267;61774;-63
2023/02/25 09:54:00;;;;;;;13.60;11.60;;;;;;;;;;105407;1248;61689;-66
2023/02/25 09:56:29;;;;;;;13.20;11.00;;;;;;;;;;108981;1248;59976;-63
2023/02/25 09:58:58;;;;;;;13.20;11.80;;;;;;;;;;105115;1265;61712;-63
2023/02/25 10:01:33;;;;;;;12.20;10.50;;;;;;;;;;105155;1265;61952;-62
2023/02/25 10:04:05;;;;;;;13.30;10.90;;;;;;;;;;105126;1248;61692;-66
2023/02/25 10:06:35;;;;;;;12.60;11.00;;;;;;;;;;105172;1262;61684;-65
2023/02/25 10:09:08;;;;;;;12.50;10.80;;;;;;;;;;105026;1248;61813;-66
2023/02/25 10:11:40;;;;;;;11.90;10.60;;;;;;;;;;105042;1249;61556;-65
2023/02/25 10:14:12;;;;;;;13.90;10.40;;;;;;;;;;105044;1254;62305;-67
2023/02/25 10:16:43;;;;;;;13.80;11.10;;;;;;;;;;105246;1248;61804;-69
2023/02/25 10:19:18;;;;;;;11.80;10.40;;;;;;;;;;105219;1248;61710;-67
2023/02/25 10:22:22;;;;;;;12.40;9.60;;;;;;;;;;105605;1253;61592;-64
2023/02/25 10:24:52;;;;;;;13.60;10.00;;;;;;;;;;105225;1250;61797;-65
2023/02/25 10:27:23;;;;;;;11.50;10.30;;;;;;;;;;105055;1249;61686;-65
2023/02/25 10:29:57;;;;;;;12.90;10.90;;;;;;;;;;105246;1252;61547;-65
2023/02/25 10:32:26;;;;;;;10.30;9.30;;;;;;;;;;104902;1249;61667;-64
2023/02/25 10:34:56;;;;;;;10.30;9.30;;;;;;;;;;105268;1262;62123;-65
2023/02/25 10:37:34;;;;;;;11.00;9.80;;;;;;;;;;105225;1250;61688;-65
2023/02/25 10:40:04;;;;;;;11.00;9.90;;;;;;;;;;105159;1248;61685;-63
2023/02/25 10:42:32;;;;;;;13.20;9.80;;;;;;;;;;105866;1252;61602;-65
2023/02/25 10:45:07;;;;;;;12.70;9.70;;;;;;;;;;105681;1249;61530;-63
2023/02/25 10:47:39;;;;;;;11.00;9.00;;;;;;;;;;105149;1253;62025;-62
2023/02/25 10:50:16;;;;;;;11.70;8.80;;;;;;;;;;105017;1254;61704;-60
2023/02/25 10:52:53;;;;;;;10.60;8.80;;;;;;;;;;104902;1254;61974;-67
2023/02/25 10:55:50;;;;;;;9.20;8.20;;;;;;;;;;105128;1253;61490;-65
2023/02/25 10:58:39;;;;;;;11.10;9.00;;;;;;;;;;105308;1249;61631;-64
2023/02/25 11:01:14;;;;;;;9.60;8.30;;;;;;;;;;105394;1250;61683;-66
2023/02/25 11:04:02;;;;;;;10.40;9.20;;;;;;;;;;105156;1253;61702;-64
2023/02/25 11:06:31;;;;;;;10.20;9.20;;;;;;;;;;104917;1248;61692;-63
2023/02/25 11:09:00;;;;;;;10.40;8.70;;;;;;;;;;105388;1252;61570;-64
2023/02/25 11:11:31;;;;;;;10.80;9.20;;;;;;;;;;105224;1249;61711;-63
2023/02/25 11:14:00;;;;;;;10.90;9.70;;;;;;;;;;104890;1256;61681;-64
2023/02/25 11:16:30;;;;;;;10.60;9.50;;;;;;;;;;105242;1249;61672;-62
2023/02/25 11:19:04;;;;;;;12.70;9.90;;;;;;;;;;105112;1251;61738;-65
2023/02/25 11:21:36;;;;;;;12.30;10.90;;;;;;;;;;105069;1250;61689;-66
2023/02/25 11:24:16;;;;;;;12.50;10.70;;;;;;;;;;105223;1264;61078;-65
2023/02/25 11:26:46;;;;;;;11.80;9.90;;;;;;;;;;105388;1250;61699;-67
2023/02/25 11:29:19;;;;;;;10.20;9.10;;;;;;;;;;105571;1250;63461;-68
2023/02/25 11:31:51;;;;;;;10.70;9.60;;;;;;;;;;105217;1252;61686;-66
2023/02/25 11:34:27;;;;;;;12.10;9.90;;;;;;;;;;104930;1255;62099;-66
2023/02/25 11:36:59;;;;;;;11.10;9.70;;;;;;;;;;105237;1253;61646;-67
2023/02/25 11:39:30;;;;;;;11.00;9.30;;;;;;;;;;104883;1255;61657;-68
2023/02/25 11:42:01;;;;;;;10.50;9.30;;;;;;;;;;105183;1253;61689;-65
2023/02/25 11:44:31;;;;;;;10.80;9.40;;;;;;;;;;105293;1260;61060;-65
2023/02/25 11:47:13;;;;;;;10.60;9.10;;;;;;;;;;105086;1254;61702;-68
2023/02/25 11:49:55;;;;;;;10.30;9.30;;;;;;;;;;105146;1260;61788;-68
2023/02/25 11:52:43;;;;;;;11.90;9.50;;;;;;;;;;105035;1257;61758;-69
2023/02/25 11:55:30;;;;;;;11.30;9.90;;;;;;;;;;105119;1266;61647;-66
2023/02/25 11:58:04;;;;;;;10.60;9.00;;;;;;;;;;105175;1269;61702;-66
2023/02/25 12:00:36;;;;;;;10.30;9.30;;;;;;;;;;105190;1253;61683;-66
2023/02/25 12:03:31;;;;;;;13.40;9.90;;;;;;;;;;105068;1250;61662;-66
2023/02/25 12:06:02;;;;;;;11.80;10.30;;;;;;;;;;105287;1248;61800;-68
2023/02/25 12:08:39;;;;;;;12.60;10.60;;;;;;;;;;105347;1252;61699;-68
2023/02/25 12:11:25;;;;;;;12.40;10.60;;;;;;;;;;106536;1248;61666;-67
2023/02/25 12:14:12;;;;;;;12.00;9.50;;;;;;;;;;108934;1248;59704;-67
2023/02/25 12:16:42;;;;;;;10.90;9.40;;;;;;;;;;108947;1249;61659;-70
2023/02/25 12:19:17;;;;;;;13.10;8.80;;;;;;;;;;109001;1249;59683;-66
2023/02/25 12:21:48;;;;;;;13.30;10.10;;;;;;;;;;108977;1248;59769;-68
2023/02/25 12:24:26;;;;;;;9.90;9.00;;;;;;;;;;109011;1247;59683;-63
2023/02/25 12:26:54;;;;;;;10.00;8.90;;;;;;;;;;106917;1252;61593;-65
2023/02/25 12:29:25;;;;;;;12.20;9.90;;;;;;;;;;105211;1248;61600;-63
2023/02/25 12:32:14;;;;;;;13.30;10.80;;;;;;;;;;105343;1252;61602;-65
2023/02/25 12:34:54;;;;;;;13.80;10.10;;;;;;;;;;105546;1252;61701;-65
2023/02/25 12:37:45;;;;;;;12.30;10.50;;;;;;;;;;105248;1252;61726;-66
2023/02/25 12:40:32;;;;;;;13.40;11.00;;;;;;;;;;105809;1250;61638;-65
2023/02/25 12:43:04;;;;;;;13.30;9.50;;;;;;;;;;105333;1248;61676;-66
2023/02/25 12:45:44;;;;;;;10.20;9.10;;;;;;;;;;105574;1256;61758;-63
2023/02/25 12:48:25;;;;;;;11.50;10.10;;;;;;;;;;105430;1251;62044;-63
2023/02/25 12:51:12;;;;;;;12.00;9.70;;;;;;;;;;105403;1259;61077;-64
2023/02/25 12:53:55;;;;;;;13.30;9.70;;;;;;;;;;105124;1266;61471;-65
2023/02/25 12:56:26;;;;;;;10.00;8.90;;;;;;;;;;105364;1252;61695;-65
2023/02/25 12:59:01;;;;;;;10.80;9.30;;;;;;;;;;105582;1252;61699;-65
2023/02/25 13:01:29;;;;;;;11.50;9.30;;;;;;;;;;105355;1248;61668;-64
2023/02/25 13:03:57;;;;;;;12.00;9.90;;;;;;;;;;105379;1260;61688;-69
2023/02/25 13:06:32;;;;;;;11.40;9.70;;;;;;;;;;105457;1248;61589;-63
2023/02/25 13:09:10;;;;;;;10.60;9.50;;;;;;;;;;105754;1248;61691;-62
2023/02/25 13:11:38;;;;;;;;;;;;;;;;;;108966;1247;60449;-69
2023/02/25 13:14:28;;;;;;;9.30;8.20;;;;;;;;;;106622;1250;61608;-65
2023/02/25 13:16:57;;;;;;;11.00;9.10;;;;;;;;;;105423;1252;61691;-63
2023/02/25 13:19:34;;;;;;;13.80;8.90;;;;;;;;;;105865;1252;61683;-64
2023/02/25 13:22:03;;;;;;;12.60;10.40;;;;;;;;;;105828;1252;61608;-64
2023/02/25 13:24:41;;;;;;;9.70;8.70;;;;;;;;;;105312;1252;61691;-73
2023/02/25 13:27:24;;;;;;;10.80;8.70;;;;;;;;;;105478;1248;63190;-68
2023/02/25 13:30:11;;;;;;;13.60;9.60;;;;;;;;;;105247;1250;61698;-63
2023/02/25 13:32:47;;;;;;;13.00;9.50;;;;;;;;;;105296;1250;61679;-69
2023/02/25 13:35:35;;;;;;;11.20;9.60;;;;;;;;;;105223;1254;61063;-67
2023/02/25 13:38:07;;;;;;;10.30;9.10;;;;;;;;;;104757;1250;61694;-72
2023/02/25 13:40:42;;;;;;;13.10;10.50;;;;;;;;;;105561;1253;61618;-73
2023/02/25 13:43:13;;;;;;;11.20;10.00;;;;;;;;;;105387;1250;61686;-71
2023/02/25 13:45:45;;;;;;;12.30;9.60;;;;;;;;;;105544;1264;61673;-74
2023/02/25 13:48:13;;;;;;;11.90;9.60;;;;;;;;;;105373;1251;61656;-71
2023/02/25 13:50:55;;;;;;;14.10;10.80;;;;;;;;;;108257;1248;61459;-65
2023/02/25 13:53:42;;;;;;;15.20;9.70;;;;;;;;;;107435;1254;61666;-68
2023/02/25 13:56:33;;;;;;;14.00;9.50;;;;;;;;;;106016;1252;61585;-66
2023/02/25 13:59:11;;;;;;;10.90;9.50;;;;;;;;;;105779;1250;61580;-71
2023/02/25 14:02:02;;;;;;;10.70;8.90;;;;;;;;;;105569;1252;61489;-70
2023/02/25 14:04:38;;;;;;;12.70;9.30;;;;;;;;;;105571;1252;61685;-71
2023/02/25 14:07:16;;;;;;;13.00;9.90;;;;;;;;;;105413;1254;62028;-71
2023/02/25 14:09:49;;;;;;;11.90;9.10;;;;;;;;;;105214;1252;61559;-71
2023/02/25 14:12:40;;;;;;;11.50;10.10;;;;;;;;;;105485;1249;61698;-63
2023/02/25 14:15:21;;;;;;;10.90;9.50;;;;;;;;;;105871;1253;61587;-64
2023/02/25 14:17:52;;;;;;;12.40;9.40;;;;;;;;;;105767;1250;61699;-66
2023/02/25 14:20:21;;;;;;;11.20;10.00;;;;;;;;;;105540;1248;61704;-68
2023/02/25 14:22:50;;;;;;;11.10;9.60;;;;;;;;;;105343;1252;61612;-71
2023/02/25 14:25:34;;;;;;;11.20;9.60;;;;;;;;;;105362;1252;61664;-69
2023/02/25 14:28:04;;;;;;;12.00;9.80;;;;;;;;;;105232;1250;61589;-68
2023/02/25 14:30:49;;;;;;;11.40;9.20;;;;;;;;;;105261;1253;61577;-68
2023/02/25 14:33:44;;;;;;;11.60;9.60;;;;;;;;;;105649;1248;62031;-69
2023/02/25 14:36:32;;;;;;;10.60;9.20;;;;;;;;;;105090;1254;62026;-74
2023/02/25 14:39:14;;;;;;;13.60;10.20;;;;;;;;;;105585;1249;61638;-66